sensor_id;sensor_type;location;lat;lon;timestamp;P1;durP1;ratioP1;P2;durP2;ratioP2
49488;SDS011;35382;51.484;11.476;2022-09-09T00:00:05;140.05;;;134.50;;
49488;SDS011;35382;51.484;11.476;2022-09-09T00:07:49;142.80;;;137.25;;
49488;SDS011;35382;51.484;11.476;2022-09-09T00:09:39;137.38;;;131.90;;
49488;SDS011;35382;51.484;11.476;2022-09-09T00:11:29;134.18;;;128.82;;
49488;SDS011;35382;51.484;11.476;2022-09-09T00:13:30;134.10;;;128.73;;
49488;SDS011;35382;51.484;11.476;2022-09-09T00:15:25;128.95;;;123.78;;
49488;SDS011;35382;51.484;11.476;2022-09-09T00:17:12;136.85;;;131.48;;
49488;SDS011;35382;51.484;11.476;2022-09-09T00:21:05;146.07;;;140.52;;
49488;SDS011;35382;51.484;11.476;2022-09-09T00:22:57;150.52;;;144.57;;
49488;SDS011;35382;51.484;11.476;2022-09-09T00:28:19;158.13;;;151.95;;
49488;SDS011;35382;51.484;11.476;2022-09-09T00:32:09;163.75;;;157.52;;
49488;SDS011;35382;51.484;11.476;2022-09-09T00:33:53;178.30;;;171.40;;
49488;SDS011;35382;51.484;11.476;2022-09-09T00:35:37;173.35;;;166.65;;
49488;SDS011;35382;51.484;11.476;2022-09-09T00:37:22;164.10;;;157.60;;
49488;SDS011;35382;51.484;11.476;2022-09-09T00:39:09;164.40;;;157.90;;
49488;SDS011;35382;51.484;11.476;2022-09-09T00:41:05;149.15;;;143.43;;
49488;SDS011;35382;51.484;11.476;2022-09-09T00:42:48;161.95;;;155.45;;
49488;SDS011;35382;51.484;11.476;2022-09-09T00:44:36;164.13;;;157.57;;
49488;SDS011;35382;51.484;11.476;2022-09-09T00:48:10;194.77;;;187.50;;
49488;SDS011;35382;51.484;11.476;2022-09-09T00:54:17;194.02;;;186.60;;
49488;SDS011;35382;51.484;11.476;2022-09-09T00:56:18;226.02;;;217.45;;
49488;SDS011;35382;51.484;11.476;2022-09-09T00:58:05;210.18;;;202.00;;
49488;SDS011;35382;51.484;11.476;2022-09-09T00:59:52;226.55;;;217.65;;
49488;SDS011;35382;51.484;11.476;2022-09-09T01:01:39;210.05;;;201.57;;
49488;SDS011;35382;51.484;11.476;2022-09-09T01:07:17;192.18;;;184.55;;
49488;SDS011;35382;51.484;11.476;2022-09-09T01:11:05;221.65;;;213.10;;
49488;SDS011;35382;51.484;11.476;2022-09-09T01:12:55;250.70;;;241.13;;
49488;SDS011;35382;51.484;11.476;2022-09-09T01:16:29;245.75;;;236.35;;
49488;SDS011;35382;51.484;11.476;2022-09-09T01:18:12;256.90;;;247.10;;
49488;SDS011;35382;51.484;11.476;2022-09-09T01:20:15;227.02;;;218.43;;
49488;SDS011;35382;51.484;11.476;2022-09-09T01:26:32;216.98;;;208.85;;
49488;SDS011;35382;51.484;11.476;2022-09-09T01:28:21;219.55;;;211.13;;
49488;SDS011;35382;51.484;11.476;2022-09-09T01:30:14;211.55;;;203.30;;
49488;SDS011;35382;51.484;11.476;2022-09-09T01:31:58;192.35;;;185.15;;
49488;SDS011;35382;51.484;11.476;2022-09-09T01:33:44;208.52;;;200.80;;
49488;SDS011;35382;51.484;11.476;2022-09-09T01:35:32;219.93;;;211.55;;
49488;SDS011;35382;51.484;11.476;2022-09-09T01:37:21;189.32;;;182.15;;
49488;SDS011;35382;51.484;11.476;2022-09-09T01:39:03;206.38;;;198.50;;
49488;SDS011;35382;51.484;11.476;2022-09-09T01:40:44;194.75;;;187.05;;
49488;SDS011;35382;51.484;11.476;2022-09-09T01:42:25;186.82;;;179.48;;
49488;SDS011;35382;51.484;11.476;2022-09-09T01:44:06;185.13;;;177.95;;
49488;SDS011;35382;51.484;11.476;2022-09-09T01:45:50;190.30;;;182.75;;
49488;SDS011;35382;51.484;11.476;2022-09-09T01:47:35;189.05;;;181.93;;
49488;SDS011;35382;51.484;11.476;2022-09-09T01:49:24;210.98;;;203.13;;
49488;SDS011;35382;51.484;11.476;2022-09-09T01:51:05;220.25;;;212.05;;
49488;SDS011;35382;51.484;11.476;2022-09-09T01:52:46;239.43;;;230.32;;
49488;SDS011;35382;51.484;11.476;2022-09-09T01:54:33;243.68;;;234.40;;
49488;SDS011;35382;51.484;11.476;2022-09-09T01:58:38;242.45;;;233.07;;
49488;SDS011;35382;51.484;11.476;2022-09-09T02:00:45;243.05;;;233.88;;
49488;SDS011;35382;51.484;11.476;2022-09-09T02:03:05;256.95;;;247.40;;
49488;SDS011;35382;51.484;11.476;2022-09-09T02:06:55;250.25;;;240.38;;
49488;SDS011;35382;51.484;11.476;2022-09-09T02:08:52;242.30;;;233.27;;
49488;SDS011;35382;51.484;11.476;2022-09-09T02:10:38;242.10;;;232.25;;
49488;SDS011;35382;51.484;11.476;2022-09-09T02:12:30;222.18;;;213.73;;
49488;SDS011;35382;51.484;11.476;2022-09-09T02:14:18;230.82;;;222.30;;
49488;SDS011;35382;51.484;11.476;2022-09-09T02:16:08;223.95;;;215.20;;
49488;SDS011;35382;51.484;11.476;2022-09-09T02:17:53;228.82;;;220.07;;
49488;SDS011;35382;51.484;11.476;2022-09-09T02:19:48;211.25;;;203.07;;
49488;SDS011;35382;51.484;11.476;2022-09-09T02:21:42;218.35;;;210.13;;
49488;SDS011;35382;51.484;11.476;2022-09-09T02:23:25;209.40;;;201.30;;
49488;SDS011;35382;51.484;11.476;2022-09-09T02:25:10;199.80;;;192.13;;
49488;SDS011;35382;51.484;11.476;2022-09-09T02:26:55;188.82;;;181.57;;
49488;SDS011;35382;51.484;11.476;2022-09-09T02:28:39;178.80;;;172.00;;
49488;SDS011;35382;51.484;11.476;2022-09-09T02:30:22;183.02;;;175.98;;
49488;SDS011;35382;51.484;11.476;2022-09-09T02:32:13;186.90;;;179.60;;
49488;SDS011;35382;51.484;11.476;2022-09-09T02:33:59;178.50;;;171.75;;
49488;SDS011;35382;51.484;11.476;2022-09-09T02:35:42;188.95;;;181.80;;
49488;SDS011;35382;51.484;11.476;2022-09-09T02:37:27;186.07;;;179.07;;
49488;SDS011;35382;51.484;11.476;2022-09-09T02:39:12;179.88;;;172.63;;
49488;SDS011;35382;51.484;11.476;2022-09-09T02:40:54;180.38;;;173.38;;
49488;SDS011;35382;51.484;11.476;2022-09-09T02:42:45;182.68;;;175.55;;
49488;SDS011;35382;51.484;11.476;2022-09-09T02:44:28;192.23;;;184.75;;
49488;SDS011;35382;51.484;11.476;2022-09-09T02:46:20;211.90;;;203.95;;
49488;SDS011;35382;51.484;11.476;2022-09-09T02:48:20;191.75;;;184.45;;
49488;SDS011;35382;51.484;11.476;2022-09-09T02:50:15;200.20;;;192.55;;
49488;SDS011;35382;51.484;11.476;2022-09-09T02:54:04;222.10;;;213.82;;
49488;SDS011;35382;51.484;11.476;2022-09-09T02:56:04;221.80;;;213.40;;
49488;SDS011;35382;51.484;11.476;2022-09-09T02:57:53;225.23;;;216.60;;
49488;SDS011;35382;51.484;11.476;2022-09-09T02:59:37;242.30;;;233.05;;
49488;SDS011;35382;51.484;11.476;2022-09-09T03:01:19;223.43;;;214.88;;
49488;SDS011;35382;51.484;11.476;2022-09-09T03:03:00;233.23;;;224.30;;
49488;SDS011;35382;51.484;11.476;2022-09-09T03:04:41;237.68;;;228.68;;
49488;SDS011;35382;51.484;11.476;2022-09-09T03:06:26;223.57;;;214.82;;
49488;SDS011;35382;51.484;11.476;2022-09-09T03:08:15;226.70;;;218.27;;
49488;SDS011;35382;51.484;11.476;2022-09-09T03:09:58;234.02;;;225.27;;
49488;SDS011;35382;51.484;11.476;2022-09-09T03:11:41;240.82;;;231.48;;
49488;SDS011;35382;51.484;11.476;2022-09-09T03:13:22;257.35;;;247.48;;
49488;SDS011;35382;51.484;11.476;2022-09-09T03:15:04;229.57;;;220.82;;
49488;SDS011;35382;51.484;11.476;2022-09-09T03:16:47;229.27;;;220.40;;
49488;SDS011;35382;51.484;11.476;2022-09-09T03:18:28;235.70;;;226.68;;
49488;SDS011;35382;51.484;11.476;2022-09-09T03:20:09;236.07;;;226.95;;
49488;SDS011;35382;51.484;11.476;2022-09-09T03:21:52;244.20;;;234.88;;
49488;SDS011;35382;51.484;11.476;2022-09-09T03:23:33;253.60;;;244.07;;
49488;SDS011;35382;51.484;11.476;2022-09-09T03:25:17;239.80;;;230.63;;
49488;SDS011;35382;51.484;11.476;2022-09-09T03:26:59;243.60;;;234.38;;
49488;SDS011;35382;51.484;11.476;2022-09-09T03:28:40;226.20;;;217.52;;
49488;SDS011;35382;51.484;11.476;2022-09-09T03:30:22;230.35;;;221.68;;
49488;SDS011;35382;51.484;11.476;2022-09-09T03:32:04;238.85;;;229.60;;
49488;SDS011;35382;51.484;11.476;2022-09-09T03:33:45;238.00;;;228.48;;
49488;SDS011;35382;51.484;11.476;2022-09-09T03:35:29;229.23;;;220.85;;
49488;SDS011;35382;51.484;11.476;2022-09-09T03:37:10;231.98;;;223.15;;
49488;SDS011;35382;51.484;11.476;2022-09-09T03:38:51;234.45;;;225.57;;
49488;SDS011;35382;51.484;11.476;2022-09-09T03:40:33;231.20;;;222.35;;
49488;SDS011;35382;51.484;11.476;2022-09-09T03:42:14;232.60;;;223.77;;
49488;SDS011;35382;51.484;11.476;2022-09-09T03:44:01;227.00;;;218.20;;
49488;SDS011;35382;51.484;11.476;2022-09-09T03:45:47;223.65;;;215.27;;
49488;SDS011;35382;51.484;11.476;2022-09-09T03:47:29;225.75;;;217.20;;
49488;SDS011;35382;51.484;11.476;2022-09-09T03:49:16;228.60;;;219.80;;
49488;SDS011;35382;51.484;11.476;2022-09-09T03:50:57;242.45;;;233.45;;
49488;SDS011;35382;51.484;11.476;2022-09-09T03:52:41;236.48;;;227.50;;
49488;SDS011;35382;51.484;11.476;2022-09-09T03:54:28;237.73;;;228.82;;
49488;SDS011;35382;51.484;11.476;2022-09-09T03:56:10;224.45;;;215.77;;
49488;SDS011;35382;51.484;11.476;2022-09-09T03:57:52;229.40;;;220.68;;
49488;SDS011;35382;51.484;11.476;2022-09-09T03:59:33;235.23;;;226.35;;
49488;SDS011;35382;51.484;11.476;2022-09-09T04:01:15;232.35;;;223.52;;
49488;SDS011;35382;51.484;11.476;2022-09-09T04:02:58;233.40;;;224.27;;
49488;SDS011;35382;51.484;11.476;2022-09-09T04:04:39;237.13;;;228.25;;
49488;SDS011;35382;51.484;11.476;2022-09-09T04:06:20;219.75;;;211.55;;
49488;SDS011;35382;51.484;11.476;2022-09-09T04:08:02;226.10;;;217.68;;
49488;SDS011;35382;51.484;11.476;2022-09-09T04:09:45;217.05;;;208.82;;
49488;SDS011;35382;51.484;11.476;2022-09-09T04:11:28;216.07;;;207.90;;
49488;SDS011;35382;51.484;11.476;2022-09-09T04:13:12;220.02;;;211.73;;
49488;SDS011;35382;51.484;11.476;2022-09-09T04:14:55;207.65;;;199.75;;
49488;SDS011;35382;51.484;11.476;2022-09-09T04:16:37;212.25;;;203.98;;
49488;SDS011;35382;51.484;11.476;2022-09-09T04:18:18;207.77;;;199.85;;
49488;SDS011;35382;51.484;11.476;2022-09-09T04:20:00;219.45;;;211.13;;
49488;SDS011;35382;51.484;11.476;2022-09-09T04:21:42;204.85;;;196.90;;
49488;SDS011;35382;51.484;11.476;2022-09-09T04:23:23;214.13;;;206.00;;
49488;SDS011;35382;51.484;11.476;2022-09-09T04:25:06;213.57;;;205.52;;
49488;SDS011;35382;51.484;11.476;2022-09-09T04:26:47;211.23;;;203.07;;
49488;SDS011;35382;51.484;11.476;2022-09-09T04:28:29;221.10;;;212.60;;
49488;SDS011;35382;51.484;11.476;2022-09-09T04:30:13;213.98;;;205.82;;
49488;SDS011;35382;51.484;11.476;2022-09-09T04:31:58;224.38;;;215.88;;
49488;SDS011;35382;51.484;11.476;2022-09-09T04:33:39;228.13;;;219.40;;
49488;SDS011;35382;51.484;11.476;2022-09-09T04:35:20;224.70;;;216.05;;
49488;SDS011;35382;51.484;11.476;2022-09-09T04:37:01;211.65;;;203.32;;
49488;SDS011;35382;51.484;11.476;2022-09-09T04:38:42;212.63;;;204.52;;
49488;SDS011;35382;51.484;11.476;2022-09-09T04:40:25;222.15;;;213.98;;
49488;SDS011;35382;51.484;11.476;2022-09-09T04:42:06;202.50;;;194.90;;
49488;SDS011;35382;51.484;11.476;2022-09-09T04:43:47;190.70;;;183.52;;
49488;SDS011;35382;51.484;11.476;2022-09-09T04:45:29;193.45;;;186.02;;
49488;SDS011;35382;51.484;11.476;2022-09-09T04:47:11;196.50;;;189.02;;
49488;SDS011;35382;51.484;11.476;2022-09-09T04:48:52;195.35;;;187.77;;
49488;SDS011;35382;51.484;11.476;2022-09-09T04:50:35;188.00;;;180.77;;
49488;SDS011;35382;51.484;11.476;2022-09-09T04:52:16;188.18;;;180.70;;
49488;SDS011;35382;51.484;11.476;2022-09-09T04:53:58;194.25;;;187.00;;
49488;SDS011;35382;51.484;11.476;2022-09-09T04:55:39;205.35;;;197.45;;
49488;SDS011;35382;51.484;11.476;2022-09-09T04:57:20;204.85;;;196.77;;
49488;SDS011;35382;51.484;11.476;2022-09-09T04:59:01;205.57;;;197.65;;
49488;SDS011;35382;51.484;11.476;2022-09-09T05:00:54;193.02;;;185.80;;
49488;SDS011;35382;51.484;11.476;2022-09-09T05:02:39;194.18;;;186.70;;
49488;SDS011;35382;51.484;11.476;2022-09-09T05:04:21;200.18;;;192.43;;
49488;SDS011;35382;51.484;11.476;2022-09-09T05:06:03;184.05;;;176.70;;
49488;SDS011;35382;51.484;11.476;2022-09-09T05:07:49;186.27;;;179.17;;
49488;SDS011;35382;51.484;11.476;2022-09-09T05:09:30;196.68;;;189.20;;
49488;SDS011;35382;51.484;11.476;2022-09-09T05:13:01;192.90;;;185.38;;
49488;SDS011;35382;51.484;11.476;2022-09-09T05:14:44;185.75;;;178.63;;
49488;SDS011;35382;51.484;11.476;2022-09-09T05:16:25;184.57;;;177.57;;
49488;SDS011;35382;51.484;11.476;2022-09-09T05:18:07;184.27;;;177.07;;
49488;SDS011;35382;51.484;11.476;2022-09-09T05:19:48;182.05;;;174.93;;
49488;SDS011;35382;51.484;11.476;2022-09-09T05:21:29;180.15;;;173.15;;
49488;SDS011;35382;51.484;11.476;2022-09-09T05:23:11;178.25;;;171.35;;
49488;SDS011;35382;51.484;11.476;2022-09-09T05:24:54;179.27;;;172.35;;
49488;SDS011;35382;51.484;11.476;2022-09-09T05:26:35;175.43;;;168.55;;
49488;SDS011;35382;51.484;11.476;2022-09-09T05:28:17;170.40;;;163.98;;
49488;SDS011;35382;51.484;11.476;2022-09-09T05:29:58;166.75;;;160.18;;
49488;SDS011;35382;51.484;11.476;2022-09-09T05:31:39;172.38;;;165.65;;
49488;SDS011;35382;51.484;11.476;2022-09-09T05:33:24;172.32;;;165.60;;
49488;SDS011;35382;51.484;11.476;2022-09-09T05:35:06;163.43;;;156.90;;
49488;SDS011;35382;51.484;11.476;2022-09-09T05:36:48;159.05;;;152.77;;
49488;SDS011;35382;51.484;11.476;2022-09-09T05:38:30;158.10;;;151.68;;
49488;SDS011;35382;51.484;11.476;2022-09-09T05:40:11;151.50;;;145.63;;
49488;SDS011;35382;51.484;11.476;2022-09-09T05:41:52;151.32;;;145.50;;
49488;SDS011;35382;51.484;11.476;2022-09-09T05:43:34;144.48;;;138.80;;
49488;SDS011;35382;51.484;11.476;2022-09-09T05:45:16;146.27;;;140.38;;
49488;SDS011;35382;51.484;11.476;2022-09-09T05:46:57;142.50;;;136.82;;
49488;SDS011;35382;51.484;11.476;2022-09-09T05:48:40;144.07;;;138.52;;
49488;SDS011;35382;51.484;11.476;2022-09-09T05:50:21;147.50;;;141.65;;
49488;SDS011;35382;51.484;11.476;2022-09-09T05:52:05;148.43;;;142.57;;
49488;SDS011;35382;51.484;11.476;2022-09-09T05:53:47;142.98;;;137.30;;
49488;SDS011;35382;51.484;11.476;2022-09-09T05:55:28;137.00;;;131.57;;
49488;SDS011;35382;51.484;11.476;2022-09-09T05:57:09;135.23;;;129.90;;
49488;SDS011;35382;51.484;11.476;2022-09-09T05:58:50;142.50;;;136.88;;
49488;SDS011;35382;51.484;11.476;2022-09-09T06:00:33;134.77;;;129.30;;
49488;SDS011;35382;51.484;11.476;2022-09-09T06:02:14;131.95;;;126.57;;
49488;SDS011;35382;51.484;11.476;2022-09-09T06:03:56;129.70;;;124.57;;
49488;SDS011;35382;51.484;11.476;2022-09-09T06:05:38;133.63;;;128.23;;
49488;SDS011;35382;51.484;11.476;2022-09-09T06:07:19;127.35;;;122.30;;
49488;SDS011;35382;51.484;11.476;2022-09-09T06:09:00;128.50;;;123.35;;
49488;SDS011;35382;51.484;11.476;2022-09-09T06:10:48;128.90;;;123.50;;
49488;SDS011;35382;51.484;11.476;2022-09-09T06:12:28;128.68;;;123.32;;
49488;SDS011;35382;51.484;11.476;2022-09-09T06:14:09;128.80;;;123.50;;
49488;SDS011;35382;51.484;11.476;2022-09-09T06:15:52;129.13;;;123.93;;
49488;SDS011;35382;51.484;11.476;2022-09-09T06:17:33;129.13;;;123.90;;
49488;SDS011;35382;51.484;11.476;2022-09-09T06:19:14;129.15;;;123.97;;
49488;SDS011;35382;51.484;11.476;2022-09-09T06:20:56;132.77;;;127.15;;
49488;SDS011;35382;51.484;11.476;2022-09-09T06:22:41;136.55;;;130.93;;
49488;SDS011;35382;51.484;11.476;2022-09-09T06:24:22;130.57;;;125.30;;
49488;SDS011;35382;51.484;11.476;2022-09-09T06:26:10;131.23;;;125.93;;
49488;SDS011;35382;51.484;11.476;2022-09-09T06:27:58;125.05;;;120.05;;
49488;SDS011;35382;51.484;11.476;2022-09-09T06:29:39;125.63;;;120.60;;
49488;SDS011;35382;51.484;11.476;2022-09-09T06:31:22;126.05;;;121.13;;
49488;SDS011;35382;51.484;11.476;2022-09-09T06:33:05;116.60;;;112.00;;
49488;SDS011;35382;51.484;11.476;2022-09-09T06:34:46;119.63;;;114.97;;
49488;SDS011;35382;51.484;11.476;2022-09-09T06:36:30;122.30;;;117.43;;
49488;SDS011;35382;51.484;11.476;2022-09-09T06:38:13;117.45;;;112.80;;
49488;SDS011;35382;51.484;11.476;2022-09-09T06:39:54;114.68;;;110.28;;
49488;SDS011;35382;51.484;11.476;2022-09-09T06:41:35;115.57;;;110.85;;
49488;SDS011;35382;51.484;11.476;2022-09-09T06:43:20;114.28;;;110.00;;
49488;SDS011;35382;51.484;11.476;2022-09-09T06:45:04;112.55;;;108.05;;
49488;SDS011;35382;51.484;11.476;2022-09-09T06:46:53;106.55;;;102.25;;
49488;SDS011;35382;51.484;11.476;2022-09-09T06:48:35;107.63;;;103.30;;
49488;SDS011;35382;51.484;11.476;2022-09-09T06:50:16;112.80;;;108.15;;
49488;SDS011;35382;51.484;11.476;2022-09-09T06:51:59;114.30;;;109.60;;
49488;SDS011;35382;51.484;11.476;2022-09-09T06:53:41;110.55;;;106.00;;
49488;SDS011;35382;51.484;11.476;2022-09-09T06:55:24;100.70;;;96.65;;
49488;SDS011;35382;51.484;11.476;2022-09-09T06:57:05;102.05;;;97.85;;
49488;SDS011;35382;51.484;11.476;2022-09-09T06:58:49;97.82;;;93.63;;
49488;SDS011;35382;51.484;11.476;2022-09-09T07:00:38;96.68;;;92.75;;
49488;SDS011;35382;51.484;11.476;2022-09-09T07:02:19;97.20;;;93.30;;
49488;SDS011;35382;51.484;11.476;2022-09-09T07:04:02;96.28;;;92.32;;
49488;SDS011;35382;51.484;11.476;2022-09-09T07:05:53;96.35;;;92.38;;
49488;SDS011;35382;51.484;11.476;2022-09-09T07:07:37;92.45;;;88.90;;
49488;SDS011;35382;51.484;11.476;2022-09-09T07:09:18;96.43;;;92.45;;
49488;SDS011;35382;51.484;11.476;2022-09-09T07:11:05;98.25;;;94.40;;
49488;SDS011;35382;51.484;11.476;2022-09-09T07:12:50;92.97;;;89.38;;
49488;SDS011;35382;51.484;11.476;2022-09-09T07:14:35;97.20;;;93.30;;
49488;SDS011;35382;51.484;11.476;2022-09-09T07:16:20;96.57;;;92.68;;
49488;SDS011;35382;51.484;11.476;2022-09-09T07:18:01;95.70;;;91.80;;
49488;SDS011;35382;51.484;11.476;2022-09-09T07:19:43;100.13;;;96.07;;
49488;SDS011;35382;51.484;11.476;2022-09-09T07:21:25;94.72;;;90.88;;
49488;SDS011;35382;51.484;11.476;2022-09-09T07:23:07;94.28;;;90.45;;
49488;SDS011;35382;51.484;11.476;2022-09-09T07:24:48;95.25;;;91.45;;
49488;SDS011;35382;51.484;11.476;2022-09-09T07:26:30;93.75;;;90.10;;
49488;SDS011;35382;51.484;11.476;2022-09-09T07:28:13;95.80;;;91.95;;
49488;SDS011;35382;51.484;11.476;2022-09-09T07:29:54;96.57;;;92.78;;
49488;SDS011;35382;51.484;11.476;2022-09-09T07:31:37;93.60;;;89.80;;
49488;SDS011;35382;51.484;11.476;2022-09-09T07:35:05;71.85;;;68.97;;
49488;SDS011;35382;51.484;11.476;2022-09-09T07:36:47;94.97;;;91.32;;
49488;SDS011;35382;51.484;11.476;2022-09-09T07:38:29;92.32;;;88.70;;
49488;SDS011;35382;51.484;11.476;2022-09-09T07:40:10;73.07;;;69.93;;
49488;SDS011;35382;51.484;11.476;2022-09-09T07:41:51;64.10;;;61.40;;
49488;SDS011;35382;51.484;11.476;2022-09-09T07:43:35;66.80;;;64.07;;
49488;SDS011;35382;51.484;11.476;2022-09-09T07:45:28;82.70;;;79.43;;
49488;SDS011;35382;51.484;11.476;2022-09-09T07:47:09;72.07;;;69.05;;
49488;SDS011;35382;51.484;11.476;2022-09-09T07:50:41;78.47;;;75.22;;
49488;SDS011;35382;51.484;11.476;2022-09-09T07:52:23;71.28;;;68.45;;
49488;SDS011;35382;51.484;11.476;2022-09-09T07:54:09;71.72;;;68.53;;
49488;SDS011;35382;51.484;11.476;2022-09-09T07:55:55;74.07;;;70.88;;
49488;SDS011;35382;51.484;11.476;2022-09-09T07:57:43;75.45;;;72.47;;
49488;SDS011;35382;51.484;11.476;2022-09-09T07:59:24;75.88;;;72.80;;
49488;SDS011;35382;51.484;11.476;2022-09-09T08:01:07;83.38;;;80.07;;
49488;SDS011;35382;51.484;11.476;2022-09-09T08:02:58;61.58;;;58.88;;
49488;SDS011;35382;51.484;11.476;2022-09-09T08:04:42;65.50;;;62.92;;
49488;SDS011;35382;51.484;11.476;2022-09-09T08:06:25;69.88;;;66.95;;
49488;SDS011;35382;51.484;11.476;2022-09-09T08:08:07;72.00;;;69.15;;
49488;SDS011;35382;51.484;11.476;2022-09-09T08:09:49;59.83;;;57.28;;
49488;SDS011;35382;51.484;11.476;2022-09-09T08:11:35;78.90;;;75.60;;
49488;SDS011;35382;51.484;11.476;2022-09-09T08:13:17;62.42;;;59.70;;
49488;SDS011;35382;51.484;11.476;2022-09-09T08:14:59;61.22;;;58.65;;
49488;SDS011;35382;51.484;11.476;2022-09-09T08:16:45;57.85;;;55.20;;
49488;SDS011;35382;51.484;11.476;2022-09-09T08:18:31;60.28;;;57.83;;
49488;SDS011;35382;51.484;11.476;2022-09-09T08:20:12;62.35;;;59.65;;
49488;SDS011;35382;51.484;11.476;2022-09-09T08:21:53;67.03;;;64.03;;
49488;SDS011;35382;51.484;11.476;2022-09-09T08:23:34;59.40;;;56.80;;
49488;SDS011;35382;51.484;11.476;2022-09-09T08:25:15;65.75;;;62.85;;
49488;SDS011;35382;51.484;11.476;2022-09-09T08:26:56;64.60;;;61.88;;
49488;SDS011;35382;51.484;11.476;2022-09-09T08:28:38;65.97;;;63.10;;
49488;SDS011;35382;51.484;11.476;2022-09-09T08:30:20;65.60;;;62.83;;
49488;SDS011;35382;51.484;11.476;2022-09-09T08:32:01;56.85;;;54.45;;
49488;SDS011;35382;51.484;11.476;2022-09-09T08:33:43;53.22;;;50.72;;
49488;SDS011;35382;51.484;11.476;2022-09-09T08:35:26;60.75;;;58.03;;
49488;SDS011;35382;51.484;11.476;2022-09-09T08:37:08;52.35;;;50.03;;
49488;SDS011;35382;51.484;11.476;2022-09-09T08:38:53;55.15;;;52.58;;
49488;SDS011;35382;51.484;11.476;2022-09-09T08:40:36;48.80;;;46.58;;
49488;SDS011;35382;51.484;11.476;2022-09-09T08:42:25;43.30;;;41.40;;
49488;SDS011;35382;51.484;11.476;2022-09-09T08:44:49;52.25;;;49.95;;
49488;SDS011;35382;51.484;11.476;2022-09-09T08:49:01;47.42;;;45.25;;
49488;SDS011;35382;51.484;11.476;2022-09-09T08:50:51;56.85;;;54.30;;
49488;SDS011;35382;51.484;11.476;2022-09-09T08:52:54;60.45;;;57.65;;
49488;SDS011;35382;51.484;11.476;2022-09-09T08:54:42;43.20;;;41.08;;
49488;SDS011;35382;51.484;11.476;2022-09-09T08:56:23;60.92;;;58.03;;
49488;SDS011;35382;51.484;11.476;2022-09-09T08:58:11;43.78;;;41.90;;
49488;SDS011;35382;51.484;11.476;2022-09-09T08:59:58;56.97;;;54.63;;
49488;SDS011;35382;51.484;11.476;2022-09-09T09:02:00;48.50;;;46.03;;
49488;SDS011;35382;51.484;11.476;2022-09-09T09:08:19;49.53;;;47.15;;
49488;SDS011;35382;51.484;11.476;2022-09-09T09:12:39;48.63;;;46.47;;
49488;SDS011;35382;51.484;11.476;2022-09-09T09:14:23;51.95;;;49.47;;
49488;SDS011;35382;51.484;11.476;2022-09-09T09:16:16;52.60;;;49.97;;
49488;SDS011;35382;51.484;11.476;2022-09-09T09:18:05;51.40;;;49.17;;
49488;SDS011;35382;51.484;11.476;2022-09-09T09:19:47;42.28;;;40.08;;
49488;SDS011;35382;51.484;11.476;2022-09-09T09:23:28;58.33;;;55.30;;
49488;SDS011;35382;51.484;11.476;2022-09-09T09:27:09;52.25;;;49.72;;
49488;SDS011;35382;51.484;11.476;2022-09-09T09:28:56;58.40;;;55.50;;
49488;SDS011;35382;51.484;11.476;2022-09-09T09:30:41;60.92;;;58.38;;
49488;SDS011;35382;51.484;11.476;2022-09-09T09:32:36;56.35;;;53.90;;
49488;SDS011;35382;51.484;11.476;2022-09-09T09:34:22;64.13;;;61.28;;
49488;SDS011;35382;51.484;11.476;2022-09-09T09:36:05;53.53;;;51.03;;
49488;SDS011;35382;51.484;11.476;2022-09-09T09:37:48;53.70;;;51.20;;
49488;SDS011;35382;51.484;11.476;2022-09-09T09:39:29;70.28;;;67.20;;
49488;SDS011;35382;51.484;11.476;2022-09-09T09:41:16;49.17;;;46.83;;
49488;SDS011;35382;51.484;11.476;2022-09-09T09:43:01;42.70;;;40.65;;
49488;SDS011;35382;51.484;11.476;2022-09-09T09:44:48;56.88;;;54.40;;
49488;SDS011;35382;51.484;11.476;2022-09-09T09:46:32;57.65;;;54.95;;
49488;SDS011;35382;51.484;11.476;2022-09-09T09:48:21;65.88;;;63.00;;
49488;SDS011;35382;51.484;11.476;2022-09-09T09:50:03;61.28;;;58.33;;
49488;SDS011;35382;51.484;11.476;2022-09-09T09:51:50;64.27;;;61.60;;
49488;SDS011;35382;51.484;11.476;2022-09-09T09:53:34;61.10;;;58.58;;
49488;SDS011;35382;51.484;11.476;2022-09-09T09:55:17;67.45;;;64.50;;
49488;SDS011;35382;51.484;11.476;2022-09-09T09:57:10;74.95;;;71.95;;
49488;SDS011;35382;51.484;11.476;2022-09-09T09:58:54;55.70;;;53.30;;
49488;SDS011;35382;51.484;11.476;2022-09-09T10:00:51;57.75;;;55.20;;
49488;SDS011;35382;51.484;11.476;2022-09-09T10:02:39;44.05;;;42.15;;
49488;SDS011;35382;51.484;11.476;2022-09-09T10:04:24;54.42;;;52.10;;
49488;SDS011;35382;51.484;11.476;2022-09-09T10:06:08;59.28;;;56.67;;
49488;SDS011;35382;51.484;11.476;2022-09-09T10:08:08;45.58;;;43.40;;
49488;SDS011;35382;51.484;11.476;2022-09-09T10:09:52;41.78;;;39.75;;
49488;SDS011;35382;51.484;11.476;2022-09-09T10:11:39;52.65;;;50.13;;
49488;SDS011;35382;51.484;11.476;2022-09-09T10:13:29;44.85;;;42.90;;
49488;SDS011;35382;51.484;11.476;2022-09-09T10:15:43;50.90;;;48.50;;
49488;SDS011;35382;51.484;11.476;2022-09-09T10:19:33;85.63;;;81.43;;
49488;SDS011;35382;51.484;11.476;2022-09-09T10:29:43;144.40;;;138.68;;
49488;SDS011;35382;51.484;11.476;2022-09-09T10:33:47;138.98;;;133.38;;
49488;SDS011;35382;51.484;11.476;2022-09-09T10:35:50;139.27;;;133.70;;
49488;SDS011;35382;51.484;11.476;2022-09-09T10:39:49;119.72;;;115.03;;
49488;SDS011;35382;51.484;11.476;2022-09-09T10:41:52;131.48;;;126.25;;
49488;SDS011;35382;51.484;11.476;2022-09-09T10:43:49;98.75;;;94.93;;
49488;SDS011;35382;51.484;11.476;2022-09-09T10:47:44;130.93;;;125.68;;
49488;SDS011;35382;51.484;11.476;2022-09-09T10:54:19;89.90;;;86.20;;
49488;SDS011;35382;51.484;11.476;2022-09-09T10:56:15;89.20;;;85.53;;
49488;SDS011;35382;51.484;11.476;2022-09-09T10:57:58;75.25;;;72.28;;
49488;SDS011;35382;51.484;11.476;2022-09-09T10:59:45;52.90;;;50.60;;
49488;SDS011;35382;51.484;11.476;2022-09-09T11:01:43;54.45;;;51.97;;
49488;SDS011;35382;51.484;11.476;2022-09-09T11:03:28;44.55;;;42.47;;
49488;SDS011;35382;51.484;11.476;2022-09-09T11:07:00;57.05;;;54.25;;
49488;SDS011;35382;51.484;11.476;2022-09-09T11:08:45;46.03;;;43.83;;
49488;SDS011;35382;51.484;11.476;2022-09-09T11:10:38;47.72;;;45.63;;
49488;SDS011;35382;51.484;11.476;2022-09-09T11:12:23;46.25;;;44.15;;
49488;SDS011;35382;51.484;11.476;2022-09-09T11:15:54;51.72;;;49.50;;
49488;SDS011;35382;51.484;11.476;2022-09-09T11:17:52;46.25;;;44.28;;